Adkins, Texas
Current Conditions -  °F | °C
As of 3:58 AM on Monday 22 Dec 2014 (Local Time) from KRND Reporting Station
Haze Haze  
Wind Chill: 56°   Ceiling: 400
Heat Index: 56°   Visibility: 6mi
Dew Point: 55°   Wind: 7mph
Humidity: 96%   Direction: 210°SSW
Pressure: 29.78"   Gusts: NA
Location:  29.39°N, 98.24°W
Report Text: KRND 220958Z AUTO 21006KT 6SM R32R/5000FT BR OVC004 13/13 A2978 RMK AO2 SLP083 T01340128
Loading
Personal Weather Stations






























Interactive Weather Map New forecast layout! Learn more

10-Day Weather Forecast

Advertisements
Track Severe Weather on mobile